createdAt,value
2019-05-20T00:00:42.752Z,98849.09
2019-05-20T00:03:12.324Z,98841.44
2019-05-20T00:05:42.099Z,98842.37
2019-05-20T00:08:11.728Z,98841.95
2019-05-20T00:10:41.301Z,98840.41
2019-05-20T00:13:11.536Z,98840.69
2019-05-20T00:15:41.100Z,98841.30
2019-05-20T00:18:10.674Z,98841.60
2019-05-20T00:20:40.319Z,98842.25
2019-05-20T00:23:09.885Z,98842.86
2019-05-20T00:25:39.451Z,98838.23
2019-05-20T00:28:09.023Z,98835.45
2019-05-20T00:30:38.606Z,98829.02
2019-05-20T00:33:08.165Z,98830.77
2019-05-20T00:35:37.727Z,98824.09
2019-05-20T00:38:07.307Z,98830.66
2019-05-20T00:40:36.885Z,98827.22
2019-05-20T00:43:06.524Z,98832.72
2019-05-20T00:45:36.081Z,98826.16
2019-05-20T00:48:06.488Z,98825.33
2019-05-20T00:50:36.117Z,98826.55
2019-05-20T00:53:05.676Z,98827.52
2019-05-20T00:55:37.608Z,98827.22
2019-05-20T00:58:08.715Z,98823.20
2019-05-20T01:00:39.216Z,98818.61
2019-05-20T01:03:08.774Z,98819.39
2019-05-20T01:05:39.380Z,98821.40
2019-05-20T01:08:08.953Z,98812.55
2019-05-20T01:10:38.519Z,98808.76
2019-05-20T01:13:08.245Z,98811.95
2019-05-20T01:15:37.821Z,98810.34
2019-05-20T01:18:07.392Z,98808.08
2019-05-20T01:20:36.954Z,98812.07
2019-05-20T01:23:06.669Z,98818.36
2019-05-20T01:25:37.255Z,98818.59
2019-05-20T01:28:08.583Z,98816.22
2019-05-20T01:30:38.153Z,98814.20
2019-05-20T01:33:14.240Z,98818.24
2019-05-20T01:35:42.887Z,98810.34
2019-05-20T01:38:14.097Z,98806.31
2019-05-20T01:40:44.547Z,98802.70
2019-05-20T01:43:14.116Z,98801.70
2019-05-20T01:45:44.705Z,98807.58
2019-05-20T01:48:15.829Z,98808.20
2019-05-20T01:50:45.667Z,98807.83
2019-05-20T01:53:15.438Z,98799.52
2019-05-20T01:55:44.966Z,98803.16
2019-05-20T01:58:14.543Z,98800.30
2019-05-20T02:00:44.108Z,98797.37
2019-05-20T02:03:29.931Z,98792.05
2019-05-20T02:05:45.042Z,98792.19
2019-05-20T02:08:14.606Z,98790.36
2019-05-20T02:10:44.177Z,98783.83
2019-05-20T02:13:13.754Z,98785.22
2019-05-20T02:15:50.417Z,98785.37
2019-05-20T02:18:20.360Z,98787.46
2019-05-20T02:20:49.944Z,98800.05
2019-05-20T02:23:19.503Z,98795.29
2019-05-20T02:25:52.028Z,98799.16
2019-05-20T02:28:21.641Z,98795.32
2019-05-20T02:30:51.241Z,98795.14
2019-05-20T02:33:20.799Z,98793.94
2019-05-20T02:35:50.461Z,98793.39
2019-05-20T02:38:21.528Z,98790.27
2019-05-20T02:40:51.086Z,98781.87
2019-05-20T02:43:20.832Z,98789.84
2019-05-20T02:45:50.560Z,98797.14
2019-05-20T02:48:20.202Z,98802.38
2019-05-20T02:50:49.768Z,98801.02
2019-05-20T02:53:19.344Z,98798.78
2019-05-20T02:55:49.010Z,98792.43
2019-05-20T02:58:18.660Z,98794.98
2019-05-20T03:03:24.384Z,98805.39
2019-05-20T03:05:53.922Z,98800.94
2019-05-20T03:08:23.483Z,98799.42
2019-05-20T03:10:53.030Z,98796.41
2019-05-20T03:13:22.571Z,98797.89
2019-05-20T03:15:52.179Z,98809.63
2019-05-20T03:18:21.719Z,98802.79
2019-05-20T03:20:51.275Z,98800.30
2019-05-20T03:23:20.969Z,98804.61
2019-05-20T03:25:50.539Z,98806.52
2019-05-20T03:28:20.076Z,98803.50
2019-05-20T03:30:49.632Z,98810.36
2019-05-20T03:33:19.191Z,98808.80
2019-05-20T03:35:48.731Z,98810.97
2019-05-20T03:38:18.281Z,98810.66
2019-05-20T03:40:47.840Z,98808.02
2019-05-20T03:43:17.418Z,98808.94
2019-05-20T03:45:46.965Z,98816.36
2019-05-20T03:48:16.516Z,98824.78
2019-05-20T03:50:46.073Z,98826.72
2019-05-20T03:53:15.615Z,98822.88
2019-05-20T03:55:45.338Z,98823.91
2019-05-20T03:58:16.953Z,98822.16
2019-05-20T04:00:48.320Z,98824.41
2019-05-20T04:03:17.930Z,98826.56
2019-05-20T04:05:47.817Z,98819.66
2019-05-20T04:08:17.360Z,98825.33
2019-05-20T04:10:46.923Z,98824.18
2019-05-20T04:13:17.539Z,98824.61
2019-05-20T04:15:47.091Z,98832.93
2019-05-20T04:18:17.900Z,98833.21
2019-05-20T04:20:47.377Z,98831.78
2019-05-20T04:23:16.945Z,98835.04
2019-05-20T04:25:46.519Z,98829.36
2019-05-20T04:28:16.088Z,98829.45
2019-05-20T04:30:45.687Z,98828.14
2019-05-20T04:33:15.244Z,98823.61
2019-05-20T04:35:49.256Z,98821.38
2019-05-20T04:38:16.099Z,98817.55
2019-05-20T04:40:45.660Z,98818.42
2019-05-20T04:43:15.255Z,98811.67
2019-05-20T04:45:44.828Z,98816.53
2019-05-20T04:48:14.387Z,98812.37
2019-05-20T04:50:43.985Z,98819.13
2019-05-20T04:53:13.568Z,98814.39
2019-05-20T04:55:43.139Z,98814.91
2019-05-20T04:58:12.708Z,98820.52
2019-05-20T05:00:52.533Z,98814.13
2019-05-20T05:03:23.438Z,98820.14
2019-05-20T05:05:53.563Z,98824.68
2019-05-20T05:08:23.597Z,98832.80
2019-05-20T05:10:53.499Z,98828.23
2019-05-20T05:13:23.597Z,98828.52
2019-05-20T05:15:53.561Z,98830.34
2019-05-20T05:18:23.257Z,98835.20
2019-05-20T05:20:52.908Z,98834.67
2019-05-20T05:23:22.787Z,98834.64
2019-05-20T05:25:52.640Z,98840.53
2019-05-20T05:28:24.007Z,98834.37
2019-05-20T05:30:53.555Z,98829.69
2019-05-20T05:33:23.332Z,98829.27
2019-05-20T05:35:53.854Z,98830.66
2019-05-20T05:38:23.877Z,98830.97
2019-05-20T05:40:53.455Z,98833.45
2019-05-20T05:43:23.027Z,98839.40
2019-05-20T05:45:52.604Z,98849.16
2019-05-20T05:48:22.241Z,98842.98
2019-05-20T05:50:52.052Z,98843.27
2019-05-20T05:53:21.614Z,98840.31
2019-05-20T05:55:51.215Z,98844.75
2019-05-20T05:58:20.776Z,98847.61
2019-05-20T06:00:50.352Z,98852.25
2019-05-20T06:03:19.933Z,98852.51
2019-05-20T06:05:49.474Z,98856.78
2019-05-20T06:08:19.159Z,98860.04
2019-05-20T06:10:48.728Z,98861.40
2019-05-20T06:13:18.287Z,98855.20
2019-05-20T06:15:47.877Z,98860.75
2019-05-20T06:18:17.517Z,98863.48
2019-05-20T06:20:47.076Z,98866.09
2019-05-20T06:23:16.654Z,98868.16
2019-05-20T06:25:46.291Z,98873.87
2019-05-20T06:28:15.866Z,98876.26
2019-05-20T06:30:47.445Z,98876.32
2019-05-20T06:33:17.088Z,98880.02
2019-05-20T06:35:48.249Z,98887.28
2019-05-20T06:38:33.866Z,98882.97
2019-05-20T06:41:04.283Z,98883.92
2019-05-20T06:43:33.852Z,98877.86
2019-05-20T06:46:03.493Z,98881.86
2019-05-20T06:48:33.070Z,98884.30
2019-05-20T06:51:02.640Z,98891.77
2019-05-20T06:53:32.228Z,98885.08
2019-05-20T06:56:01.791Z,98881.84
2019-05-20T06:58:31.367Z,98878.48
2019-05-20T07:01:00.925Z,98878.68
2019-05-20T07:03:30.508Z,98876.30
2019-05-20T07:06:00.148Z,98879.20
2019-05-20T07:08:29.809Z,98885.49
2019-05-20T07:11:00.918Z,98885.66
2019-05-20T07:13:30.484Z,98892.81
2019-05-20T07:16:00.070Z,98885.47
2019-05-20T07:18:29.750Z,98887.45
2019-05-20T07:21:00.831Z,98891.39
2019-05-20T07:23:30.419Z,98883.69
2019-05-20T07:26:00.024Z,98889.05
2019-05-20T07:28:29.569Z,98886.99
2019-05-20T07:30:59.278Z,98886.70
2019-05-20T07:33:28.811Z,98889.05
2019-05-20T07:35:58.394Z,98891.19
2019-05-20T07:38:27.959Z,98887.03
2019-05-20T07:40:57.519Z,98898.89
2019-05-20T07:43:27.172Z,98896.72
2019-05-20T07:45:57.251Z,98898.86
2019-05-20T07:48:27.597Z,98886.11
2019-05-20T07:50:58.749Z,98880.85
2019-05-20T07:53:29.467Z,98882.64
2019-05-20T07:56:12.459Z,98875.10
2019-05-20T07:58:46.585Z,98885.73
2019-05-20T08:01:16.500Z,98889.53
2019-05-20T08:03:46.201Z,98884.95
2019-05-20T08:06:15.922Z,98885.30
2019-05-20T08:08:45.574Z,98882.25
2019-05-20T08:11:15.209Z,98886.28
2019-05-20T08:13:44.782Z,98885.27
2019-05-20T08:16:15.962Z,98887.20
2019-05-20T08:18:45.687Z,98889.34
2019-05-20T08:21:16.370Z,98887.48
2019-05-20T08:23:50.135Z,98890.71
2019-05-20T08:26:18.742Z,98892.52
2019-05-20T08:28:48.335Z,98888.55
2019-05-20T08:31:17.897Z,98888.70
2019-05-20T08:33:47.465Z,98887.16
2019-05-20T08:36:17.036Z,98893.59
2019-05-20T08:38:46.593Z,98905.50
2019-05-20T08:41:16.164Z,98907.26
2019-05-20T08:43:45.843Z,98907.84
2019-05-20T08:46:15.873Z,98909.52
2019-05-20T08:48:45.553Z,98909.98
2019-05-20T08:51:15.782Z,98913.74
2019-05-20T08:53:45.354Z,98911.66
2019-05-20T08:56:14.927Z,98915.86
2019-05-20T08:58:44.467Z,98917.48
2019-05-20T09:01:14.101Z,98912.52
2019-05-20T09:03:43.734Z,98910.89
2019-05-20T09:06:13.376Z,98911.20
2019-05-20T09:08:44.054Z,98907.73
2019-05-20T09:11:13.609Z,98909.14
2019-05-20T09:13:43.292Z,98915.14
2019-05-20T09:16:12.838Z,98911.87
2019-05-20T09:18:42.506Z,98914.41
2019-05-20T09:21:12.150Z,98908.05
2019-05-20T09:23:41.824Z,98913.14
2019-05-20T09:26:11.538Z,98906.39
2019-05-20T09:28:41.107Z,98915.36
2019-05-20T09:31:10.929Z,98901.99
2019-05-20T09:33:40.740Z,98899.05
2019-05-20T09:36:10.321Z,98903.59
2019-05-20T09:38:39.972Z,98904.18
2019-05-20T09:41:09.847Z,98897.06
2019-05-20T09:43:39.576Z,98896.42
2019-05-20T09:46:09.175Z,98890.46
2019-05-20T09:48:38.771Z,98892.51
2019-05-20T09:51:08.403Z,98899.06
2019-05-20T09:53:37.997Z,98899.16
2019-05-20T09:56:07.594Z,98908.62
2019-05-20T09:58:37.165Z,98908.41
2019-05-20T10:01:06.725Z,98910.22
2019-05-20T10:03:36.302Z,98907.79
2019-05-20T10:06:06.284Z,98909.17
2019-05-20T10:08:40.984Z,98912.29
2019-05-20T10:11:07.283Z,98905.98
2019-05-20T10:13:36.864Z,98913.04
2019-05-20T10:16:06.575Z,98910.56
2019-05-20T10:18:38.658Z,98911.52
2019-05-20T10:21:07.494Z,98913.39
2019-05-20T10:23:37.138Z,98914.66
2019-05-20T10:26:06.777Z,98910.87
2019-05-20T10:28:41.953Z,98915.72
2019-05-20T10:31:07.666Z,98917.56
2019-05-20T10:33:37.357Z,98919.73
2019-05-20T10:36:06.896Z,98921.72
2019-05-20T10:38:54.887Z,98924.22
2019-05-20T10:41:07.850Z,98924.35
2019-05-20T10:43:37.428Z,98920.20
2019-05-20T10:46:07.060Z,98917.05
2019-05-20T10:48:36.644Z,98926.30
2019-05-20T10:51:06.238Z,98915.41
2019-05-20T10:53:35.864Z,98925.84
2019-05-20T10:56:05.595Z,98921.09
2019-05-20T10:58:35.257Z,98925.67
2019-05-20T11:01:06.028Z,98926.09
2019-05-20T11:03:35.598Z,98930.14
2019-05-20T11:06:05.585Z,98933.37
2019-05-20T11:08:35.309Z,98930.05
2019-05-20T11:11:04.943Z,98937.27
2019-05-20T11:13:34.490Z,98929.91
2019-05-20T11:16:04.281Z,98937.28
2019-05-20T11:18:33.830Z,98956.80
2019-05-20T11:21:03.465Z,98943.64
2019-05-20T11:23:33.046Z,98938.59
2019-05-20T11:26:02.673Z,98946.07
2019-05-20T11:28:32.237Z,98947.56
2019-05-20T11:31:01.844Z,98947.26
2019-05-20T11:33:31.422Z,98944.78
2019-05-20T11:36:01.017Z,98945.58
2019-05-20T11:38:30.602Z,98941.03
2019-05-20T11:41:00.305Z,98946.67
2019-05-20T11:43:29.944Z,98949.14
2019-05-20T11:45:59.519Z,98935.86
2019-05-20T11:48:29.103Z,98939.47
2019-05-20T11:50:58.663Z,98937.86
2019-05-20T11:53:28.231Z,98933.98
2019-05-20T11:55:57.826Z,98937.27
2019-05-20T11:58:27.444Z,98936.64
2019-05-20T12:00:57.016Z,98933.94
2019-05-20T12:03:26.591Z,98938.00
2019-05-20T12:05:56.228Z,98934.41
2019-05-20T12:08:25.795Z,98931.42
2019-05-20T12:10:55.404Z,98936.66
2019-05-20T12:13:24.969Z,98931.01
2019-05-20T12:15:54.540Z,98931.42
2019-05-20T12:18:24.129Z,98927.93
2019-05-20T12:20:53.796Z,98937.73
2019-05-20T12:23:23.394Z,98940.42
2019-05-20T12:25:55.821Z,98938.33
2019-05-20T12:28:44.721Z,98940.05
2019-05-20T12:31:14.303Z,98942.02
2019-05-20T12:33:43.862Z,98943.98
2019-05-20T12:36:13.425Z,98940.28
2019-05-20T12:38:43.014Z,98949.30
2019-05-20T12:41:12.578Z,98931.70
2019-05-20T12:43:45.016Z,98928.98
2019-05-20T12:46:13.458Z,98924.31
2019-05-20T12:48:43.277Z,98931.98
2019-05-20T12:51:14.980Z,98924.55
2019-05-20T12:53:44.700Z,98931.19
2019-05-20T12:56:14.268Z,98937.86
2019-05-20T12:58:43.874Z,98937.92
2019-05-20T13:01:13.499Z,98935.64
2019-05-20T13:03:43.083Z,98937.56
2019-05-20T13:06:12.656Z,98940.16
2019-05-20T13:08:42.225Z,98944.41
2019-05-20T13:11:11.879Z,98942.54
2019-05-20T13:13:41.454Z,98944.42
2019-05-20T13:16:11.086Z,98942.01
2019-05-20T13:18:54.996Z,98947.69
2019-05-20T13:21:12.077Z,98945.00
2019-05-20T13:23:41.641Z,98937.53
2019-05-20T13:26:11.210Z,98941.56
2019-05-20T13:28:40.924Z,98942.02
2019-05-20T13:31:11.099Z,98932.73
2019-05-20T13:33:40.728Z,98935.45
2019-05-20T13:36:10.299Z,98932.08
2019-05-20T13:38:39.868Z,98935.05
2019-05-20T13:41:09.459Z,98932.50
2019-05-20T13:43:39.022Z,98938.77
2019-05-20T13:46:08.602Z,98934.92
2019-05-20T13:48:38.159Z,98938.08
2019-05-20T13:51:07.725Z,98937.32
2019-05-20T13:53:37.645Z,98939.02
2019-05-20T13:56:07.247Z,98938.70
2019-05-20T13:58:36.824Z,98936.46
2019-05-20T14:01:06.549Z,98936.55
2019-05-20T14:03:36.118Z,98935.42
2019-05-20T14:06:05.766Z,98930.75
2019-05-20T14:08:35.327Z,98923.95
2019-05-20T14:11:05.254Z,98926.01
2019-05-20T14:13:34.955Z,98923.67
2019-05-20T14:16:04.678Z,98924.62
2019-05-20T14:18:34.245Z,98935.47
2019-05-20T14:21:03.840Z,98931.73
2019-05-20T14:23:33.410Z,98924.61
2019-05-20T14:26:03.009Z,98931.45
2019-05-20T14:28:34.894Z,98939.33
2019-05-20T14:31:06.015Z,98929.14
2019-05-20T14:33:35.952Z,98949.08
2019-05-20T14:36:05.520Z,98948.95
2019-05-20T14:38:35.103Z,98950.64
2019-05-20T14:41:20.434Z,98957.01
2019-05-20T14:43:36.229Z,98961.98
2019-05-20T14:46:08.172Z,98964.23
2019-05-20T14:48:37.750Z,98972.55
2019-05-20T14:51:07.393Z,98979.16
2019-05-20T14:53:36.967Z,98983.31
2019-05-20T14:56:06.543Z,98983.99
2019-05-20T14:58:36.113Z,98988.03
2019-05-20T15:01:07.184Z,98993.16
2019-05-20T15:03:36.759Z,98997.88
2019-05-20T15:06:06.330Z,98999.38
2019-05-20T15:08:35.908Z,99002.16
2019-05-20T15:11:05.517Z,99003.44
2019-05-20T15:13:35.078Z,99001.19
2019-05-20T15:16:04.783Z,99001.97
2019-05-20T15:18:34.360Z,99002.16
2019-05-20T15:21:03.954Z,98999.31
2019-05-20T15:23:33.603Z,98998.94
2019-05-20T15:26:03.256Z,98997.02
2019-05-20T15:28:32.822Z,98998.87
2019-05-20T15:31:02.406Z,99002.42
2019-05-20T15:33:31.966Z,98999.75
2019-05-20T15:36:04.173Z,99009.46
2019-05-20T15:38:33.736Z,99007.59
2019-05-20T15:41:03.401Z,99006.09
2019-05-20T15:43:32.977Z,99009.54
2019-05-20T15:46:02.539Z,99008.78
2019-05-20T15:48:32.109Z,99006.02
2019-05-20T15:51:01.677Z,99004.59
2019-05-20T15:53:31.264Z,98997.10
2019-05-20T15:56:00.831Z,98994.96
2019-05-20T15:58:30.395Z,98990.91
2019-05-20T16:00:59.974Z,98989.34
2019-05-20T16:03:29.570Z,98987.69
2019-05-20T16:06:00.134Z,98984.25
2019-05-20T16:08:30.875Z,98983.28
2019-05-20T16:11:00.437Z,98982.61
2019-05-20T16:13:30.953Z,98989.79
2019-05-20T16:16:00.529Z,98977.09
2019-05-20T16:18:30.111Z,98980.48
2019-05-20T16:20:59.818Z,98986.98
2019-05-20T16:23:29.377Z,98990.11
2019-05-20T16:25:59.039Z,98989.25
2019-05-20T16:28:30.202Z,98993.19
2019-05-20T16:30:59.796Z,98994.69
2019-05-20T16:33:29.358Z,99002.28
2019-05-20T16:35:58.937Z,98990.54
2019-05-20T16:38:28.499Z,98994.86
2019-05-20T16:40:58.068Z,98995.41
2019-05-20T16:43:27.626Z,99001.03
2019-05-20T16:45:57.198Z,99006.87
2019-05-20T16:48:26.760Z,99004.83
2019-05-20T16:50:56.331Z,99006.23
2019-05-20T16:53:25.893Z,99003.34
2019-05-20T16:55:55.472Z,99005.94
2019-05-20T16:58:25.049Z,99010.83
2019-05-20T17:00:54.713Z,99012.05
2019-05-20T17:03:24.334Z,99013.00
2019-05-20T17:05:53.863Z,99007.81
2019-05-20T17:08:23.433Z,99011.14
2019-05-20T17:10:53.065Z,99012.38
2019-05-20T17:13:22.775Z,99017.50
2019-05-20T17:15:52.369Z,99014.92
2019-05-20T17:18:22.248Z,99014.61
2019-05-20T17:20:51.956Z,99015.75
2019-05-20T17:23:21.632Z,99015.47
2019-05-20T17:25:51.391Z,99009.25
2019-05-20T17:28:21.052Z,99013.83
2019-05-20T17:30:50.711Z,99018.06
2019-05-20T17:33:20.339Z,99016.14
2019-05-20T17:35:49.873Z,99017.70
2019-05-20T17:38:21.835Z,99022.47
2019-05-20T17:40:51.470Z,99025.84
2019-05-20T17:43:21.158Z,99019.34
2019-05-20T17:45:50.831Z,99026.13
2019-05-20T17:48:21.680Z,99021.84
2019-05-20T17:50:53.025Z,99028.19
2019-05-20T17:53:22.612Z,99027.51
2019-05-20T17:55:52.188Z,99029.31
2019-05-20T17:58:21.795Z,99031.66
2019-05-20T18:00:51.357Z,99034.83
2019-05-20T18:03:20.944Z,99030.95
2019-05-20T18:05:50.638Z,99031.91
2019-05-20T18:08:20.280Z,99029.66
2019-05-20T18:10:49.863Z,99027.69
2019-05-20T18:13:19.446Z,99034.23
2019-05-20T18:15:50.842Z,99031.77
2019-05-20T18:18:20.406Z,99035.86
2019-05-20T18:20:50.353Z,99032.41
2019-05-20T18:23:20.002Z,99033.27
2019-05-20T18:25:49.569Z,99039.73
2019-05-20T18:28:19.151Z,99039.54
2019-05-20T18:30:48.721Z,99042.86
2019-05-20T18:33:18.290Z,99049.41
2019-05-20T18:35:47.877Z,99049.79
2019-05-20T18:38:17.509Z,99058.30
2019-05-20T18:40:47.359Z,99062.30
2019-05-20T18:43:16.935Z,99065.33
2019-05-20T18:45:46.574Z,99070.89
2019-05-20T18:48:16.223Z,99066.83
2019-05-20T18:50:46.063Z,99075.50
2019-05-20T18:53:15.639Z,99067.04
2019-05-20T18:55:45.207Z,99076.85
2019-05-20T18:58:14.787Z,99069.86
2019-05-20T19:00:47.384Z,99072.78
2019-05-20T19:03:16.963Z,99070.07
2019-05-20T19:05:46.541Z,99074.30
2019-05-20T19:08:16.135Z,99072.41
2019-05-20T19:10:45.770Z,99075.50
2019-05-20T19:13:15.355Z,99072.36
2019-05-20T19:15:44.936Z,99072.61
2019-05-20T19:18:14.639Z,99075.56
2019-05-20T19:20:44.239Z,99072.96
2019-05-20T19:23:13.829Z,99069.14
2019-05-20T19:25:44.109Z,99068.09
2019-05-20T19:28:13.813Z,99067.66
2019-05-20T19:30:43.837Z,99074.40
2019-05-20T19:33:15.063Z,99073.34
2019-05-20T19:35:44.684Z,99070.66
2019-05-20T19:38:14.288Z,99076.73
2019-05-20T19:40:43.976Z,99076.19
2019-05-20T19:43:13.580Z,99077.11
2019-05-20T19:45:43.139Z,99082.58
2019-05-20T19:48:12.765Z,99086.53
2019-05-20T19:50:42.316Z,99082.66
2019-05-20T19:53:11.981Z,99091.49
2019-05-20T19:55:41.529Z,99086.89
2019-05-20T19:58:11.125Z,99088.66
2019-05-20T20:00:42.630Z,99089.69
2019-05-20T20:03:12.217Z,99092.44
2019-05-20T20:05:41.784Z,99094.06
2019-05-20T20:08:11.362Z,99101.74
2019-05-20T20:10:40.922Z,99098.90
2019-05-20T20:13:10.593Z,99105.22
2019-05-20T20:15:41.177Z,99101.67
2019-05-20T20:18:10.958Z,99109.75
2019-05-20T20:20:40.589Z,99112.35
2019-05-20T20:23:10.347Z,99112.84
2019-05-20T20:25:40.058Z,99113.59
2019-05-20T20:28:09.623Z,99114.36
2019-05-20T20:30:39.270Z,99116.59
2019-05-20T20:33:08.854Z,99113.72
2019-05-20T20:35:38.607Z,99124.12
2019-05-20T20:38:08.162Z,99118.13
2019-05-20T20:40:39.420Z,99117.89
2019-05-20T20:43:08.984Z,99121.06
2019-05-20T20:45:38.561Z,99121.06
2019-05-20T20:48:08.120Z,99124.60
2019-05-20T20:50:37.689Z,99118.89
2019-05-20T20:53:07.335Z,99118.98
2019-05-20T20:55:36.908Z,99119.38
2019-05-20T20:58:06.538Z,99120.36
2019-05-20T21:00:36.120Z,99119.38
2019-05-20T21:03:05.683Z,99122.37
2019-05-20T21:05:35.245Z,99126.52
2019-05-20T21:08:04.891Z,99121.34
2019-05-20T21:10:34.449Z,99124.22
2019-05-20T21:13:04.137Z,99127.11
2019-05-20T21:15:33.745Z,99123.87
2019-05-20T21:18:03.368Z,99126.27
2019-05-20T21:20:32.966Z,99127.97
2019-05-20T21:23:02.561Z,99127.05
2019-05-20T21:25:32.139Z,99134.80
2019-05-20T21:28:01.775Z,99137.93
2019-05-20T21:30:32.716Z,99149.18
2019-05-20T21:33:09.298Z,99150.01
2019-05-20T21:35:33.593Z,99139.41
2019-05-20T21:38:03.214Z,99146.81
2019-05-20T21:40:33.132Z,99136.79
2019-05-20T21:43:02.949Z,99136.18
2019-05-20T21:45:32.817Z,99145.75
2019-05-20T21:48:03.927Z,99141.20
2019-05-20T21:50:33.811Z,99144.52
2019-05-20T21:53:03.624Z,99143.13
2019-05-20T21:55:33.543Z,99136.06
2019-05-20T21:58:03.270Z,99132.56
2019-05-20T22:00:37.331Z,99141.06
2019-05-20T22:03:06.924Z,99139.83
2019-05-20T22:05:38.004Z,99145.75
2019-05-20T22:08:07.573Z,99142.23
2019-05-20T22:10:37.158Z,99138.81
2019-05-20T22:13:06.717Z,99140.50
2019-05-20T22:15:36.373Z,99143.27
2019-05-20T22:18:06.090Z,99143.25
2019-05-20T22:20:35.733Z,99136.97
2019-05-20T22:23:22.889Z,99139.81
2019-05-20T22:25:53.079Z,99134.67
2019-05-20T22:28:22.635Z,99136.12
2019-05-20T22:30:52.363Z,99131.80
2019-05-20T22:33:21.935Z,99128.87
2019-05-20T22:35:51.514Z,99133.26
2019-05-20T22:38:21.094Z,99136.31
2019-05-20T22:40:52.000Z,99129.34
2019-05-20T22:43:21.563Z,99133.82
2019-05-20T22:45:51.720Z,99135.87
2019-05-20T22:48:21.991Z,99133.19
2019-05-20T22:50:51.557Z,99134.45
2019-05-20T22:53:21.183Z,99136.98
2019-05-20T22:55:50.756Z,99133.20
2019-05-20T22:58:20.331Z,99137.95
2019-05-20T23:00:49.899Z,99133.70
2019-05-20T23:03:19.537Z,99132.99
2019-05-20T23:05:49.203Z,99134.03
2019-05-20T23:08:18.785Z,99135.63
2019-05-20T23:10:48.388Z,99132.64
2019-05-20T23:13:17.927Z,99124.09
2019-05-20T23:15:48.921Z,99127.20
2019-05-20T23:18:18.565Z,99116.11
2019-05-20T23:20:48.132Z,99121.16
2019-05-20T23:23:17.710Z,99113.41
2019-05-20T23:25:47.340Z,99119.73
2019-05-20T23:28:17.940Z,99123.17
2019-05-20T23:30:47.499Z,99123.23
2019-05-20T23:33:17.093Z,99123.33
2019-05-20T23:35:46.679Z,99127.50
2019-05-20T23:38:16.240Z,99122.77
2019-05-20T23:40:45.814Z,99116.77
2019-05-20T23:43:15.380Z,99124.65
2019-05-20T23:45:45.331Z,99123.20
2019-05-20T23:48:14.964Z,99123.91
2019-05-20T23:50:44.540Z,99120.30
2019-05-20T23:53:14.103Z,99128.27
2019-05-20T23:55:45.083Z,99128.52
2019-05-20T23:58:14.734Z,99130.67
